Date,TemperatureHighF,TemperatureAvgF,TemperatureLowF,DewpointHighF,DewpointAvgF,DewpointLowF,HumidityHigh,HumidityAvg,HumidityLow,PressureMaxIn,PressureMinIn,WindSpeedMaxMPH,WindSpeedAvgMPH,GustSpeedMaxMPH,PrecipitationSumIn
2013-3-29,60,54,48,44,41,38,69,60,46,0.00,0.00,0,-999,0,0.00
2013-3-30,64,53,45,44,38,-100,70,59,40,30.24,0.00,0,-999,0,0.00
2013-3-31,65,56,48,45,38,34,74,51,38,30.09,29.94,0,-999,0,0.00
2013-4-1,56,50,45,45,43,41,89,77,67,30.09,29.94,0,-999,0,0.00
2013-4-2,56,49,44,44,41,37,90,75,62,30.16,30.09,0,-999,0,0.00
2013-4-3,59,52,44,46,41,38,84,68,47,30.13,29.95,0,-999,0,0.00
2013-4-4,53,49,45,47,42,38,92,77,60,29.95,29.74,0,-999,0,0.00
2013-4-5,50,45,41,43,41,39,93,86,71,29.94,29.84,0,-999,0,0.00
2013-4-6,42,39,35,40,36,33,95,89,77,29.98,29.80,0,-999,0,0.00
2013-4-7,40,36,33,38,34,31,96,92,78,29.85,29.56,0,-999,0,0.00
2013-4-8,46,38,32,36,33,29,95,83,67,30.25,29.85,0,-999,0,0.00
2013-4-9,52,42,34,38,30,-100,90,67,36,30.34,30.23,0,-999,0,0.00
2013-4-10,49,44,36,43,35,-100,94,72,35,30.23,30.01,0,-999,0,0.00
2013-4-11,46,39,34,36,32,29,83,76,66,30.24,30.15,0,-999,0,0.00
2013-4-12,46,38,31,36,32,27,93,77,60,30.15,29.75,0,-999,0,0.00
2013-4-13,38,34,30,36,29,23,93,81,67,30.00,29.76,0,-999,0,0.00
2013-4-14,43,36,31,37,29,24,94,77,57,30.01,29.88,0,-999,0,0.00
2013-4-15,41,34,30,38,30,27,97,87,66,30.12,29.88,0,-999,0,0.00
2013-4-16,43,37,33,31,28,24,89,68,54,30.38,30.13,0,-999,0,0.00
2013-4-17,49,41,32,34,28,22,70,60,44,30.45,30.38,0,-999,0,0.00
2013-4-18,47,41,36,40,34,30,91,75,67,30.41,30.27,0,-999,0,0.00
2013-4-19,48,44,42,42,40,38,94,88,78,30.27,30.08,0,-999,0,0.00
2013-4-20,46,42,39,39,36,33,93,77,67,30.26,30.19,0,-999,0,0.00
2013-4-21,46,41,36,37,35,33,90,79,69,30.29,30.15,0,-999,0,0.00
2013-4-22,53,44,36,33,19,-100,91,45,27,30.47,30.28,0,-999,0,0.00
2013-4-23,58,47,37,28,16,-100,46,32,22,30.41,30.17,0,-999,0,0.00
2013-4-24,64,53,42,27,21,16,39,29,17,30.30,30.00,0,-999,0,0.00
2013-4-25,65,56,47,42,36,28,61,47,37,30.11,29.97,0,-999,0,0.00
2013-4-26,69,60,52,42,34,-100,64,43,25,30.20,30.11,0,-999,0,0.00
2013-4-27,62,55,47,38,32,25,63,42,29,30.20,30.13,0,-999,0,0.00
2013-4-28,53,47,43,41,39,35,90,72,56,30.20,29.99,0,-999,0,0.00
2013-4-29,46,42,34,41,32,24,92,67,44,30.09,29.95,0,-999,0,0.00
2013-4-30,46,38,32,30,25,20,76,61,38,30.39,30.08,0,-999,0,0.00
2013-5-1,58,45,32,26,23,17,68,44,21,30.56,30.39,0,-999,0,0.00
2013-5-2,68,55,44,37,23,15,38,28,19,30.56,30.24,0,-999,0,0.00
2013-5-3,70,60,48,37,34,29,63,39,27,30.29,30.16,0,-999,0,0.00
2013-5-4,70,62,55,35,28,21,41,28,17,30.18,29.98,0,-999,0,0.00
2013-5-5,73,64,54,34,30,27,38,28,21,29.99,29.81,0,-999,0,0.00
2013-5-6,77,69,59,47,34,-100,57,30,18,29.84,29.73,0,-999,0,0.00
2013-5-7,71,61,51,50,47,42,70,60,43,29.93,29.79,0,-999,0,0.00
2013-5-8,71,60,50,53,48,46,84,66,40,30.07,29.93,0,-999,0,0.00
2013-5-9,79,63,51,54,45,-100,86,60,19,30.12,30.05,0,-999,0,0.00
2013-5-10,82,68,56,52,45,-100,71,51,19,30.16,30.09,0,-999,0,0.00
2013-5-11,79,69,60,53,49,44,66,50,30,30.15,30.01,0,-999,0,0.00
2013-5-12,65,60,54,53,50,45,77,69,58,30.09,30.04,0,-999,0,0.00
2013-5-13,58,52,43,48,44,33,90,75,61,30.19,30.02,0,-999,0,0.00
2013-5-14,58,48,39,37,32,24,73,55,30,30.19,30.09,0,-999,0,0.00
2013-5-15,52,47,45,42,38,34,85,69,63,30.10,30.01,0,-999,0,0.00
2013-5-16,60,50,43,46,35,-100,87,74,54,30.02,29.89,0,-999,0,0.00
2013-5-17,54,47,42,43,39,-100,94,80,60,30.05,29.93,0,-999,0,0.00
2013-5-18,50,45,43,42,39,36,88,78,70,30.23,30.05,0,-999,0,0.00
2013-5-19,56,50,44,45,42,39,88,75,65,30.31,30.23,0,-999,0,0.00
2013-5-20,69,55,41,44,39,31,89,59,25,30.30,29.86,0,-999,0,0.00
2013-5-21,53,43,34,41,36,32,93,78,60,29.89,29.75,0,-999,0,0.00
2013-5-22,38,36,33,36,33,32,95,92,87,29.98,29.87,0,-999,0,0.00
2013-5-23,45,40,35,38,36,34,95,86,72,30.03,29.97,0,-999,0,0.00
2013-5-24,50,43,38,39,38,36,96,82,65,30.07,29.97,0,-999,0,0.00
2013-5-25,57,48,39,42,39,36,93,73,57,30.05,29.96,0,-999,0,0.00
2013-5-26,56,50,45,46,42,39,92,76,63,30.03,29.93,0,-999,0,0.00
2013-5-27,51,46,43,48,43,38,94,88,77,30.00,29.79,0,-999,0,0.00
2013-5-28,54,48,43,43,41,37,90,76,65,29.93,29.78,0,-999,0,0.00
2013-5-29,50,46,42,44,42,37,95,86,70,30.01,29.68,0,-999,0,0.00
2013-5-30,53,45,39,41,38,36,91,77,62,30.23,30.01,0,-999,0,0.00
2013-5-31,63,51,39,46,39,30,94,67,29,30.31,30.22,0,-999,0,0.00
2013-6-1,66,56,46,50,44,39,77,65,49,30.23,30.00,0,-999,0,0.00
2013-6-2,63,56,47,49,44,38,87,65,42,30.03,29.97,0,-999,0,0.00
2013-6-3,68,57,45,50,44,39,82,63,38,30.05,30.00,0,-999,0,0.00
2013-6-4,76,64,50,46,41,35,70,44,23,30.12,30.03,0,-999,0,0.00
2013-6-5,76,68,60,53,45,39,66,44,27,30.04,29.96,0,-999,0,0.00
2013-6-6,76,66,58,56,52,44,76,60,34,30.00,29.94,0,-999,0,0.00
2013-6-7,69,61,55,53,43,33,69,52,31,30.08,29.96,0,-999,0,0.00
2013-6-8,71,60,51,47,40,34,70,49,33,30.08,30.01,0,-999,0,0.00
2013-6-9,63,57,50,48,44,39,73,62,42,30.01,29.92,0,-999,0,0.00
2013-6-10,63,53,43,47,42,38,89,67,44,29.93,29.82,0,-999,0,0.00
2013-6-11,53,47,42,41,39,36,87,72,62,30.11,29.87,0,-999,0,0.00
2013-6-12,57,48,41,43,40,37,91,72,55,30.12,30.10,0,-999,0,0.00
2013-6-13,55,48,42,44,41,38,90,78,66,30.22,30.10,0,-999,0,0.00
2013-6-14,64,53,44,48,42,38,85,67,43,30.22,30.01,0,-999,0,0.00
2013-6-15,76,64,53,51,41,-100,68,47,24,30.02,29.90,0,-999,0,0.00
2013-6-16,73,62,54,53,49,44,74,63,35,30.07,29.96,0,-999,0,0.00
2013-6-17,69,60,53,49,45,-100,86,60,38,30.07,29.92,0,-999,0,0.00
2013-6-18,63,54,47,46,41,35,85,64,36,29.97,29.89,0,-999,0,0.00
2013-6-19,56,50,45,45,42,40,87,74,62,30.03,29.88,0,-999,0,0.00
2013-6-20,54,47,45,44,42,41,89,81,65,30.08,29.99,0,-999,0,0.00
2013-6-21,58,58,57,47,47,47,66,66,65,30.13,30.13,0,-999,0,0.00
2013-6-22,72,65,48,49,44,37,85,48,31,30.09,29.89,0,-999,0,0.00
2013-6-23,64,60,54,55,50,45,94,70,57,29.89,29.68,0,-999,0,0.00
2013-6-24,58,53,49,53,47,44,94,82,66,29.74,29.64,0,-999,0,0.00
2013-6-25,58,52,49,52,48,45,94,87,73,29.91,29.73,0,-999,0,0.00
2013-6-26,62,56,49,51,49,47,94,78,65,30.10,29.91,0,-999,0,0.00
2013-6-27,74,63,53,58,52,46,91,68,50,30.21,30.07,0,-999,0,0.00
2013-6-28,85,73,62,61,56,52,71,56,37,30.20,30.04,0,-999,0,0.00
2013-6-29,81,72,64,63,58,54,79,61,42,30.07,29.99,0,-999,0,0.00
2013-6-30,91,78,64,62,56,50,74,48,25,30.02,29.89,0,-999,0,0.00
2013-7-1,92,79,68,66,54,-100,70,48,25,29.98,29.88,0,-999,0,0.00
2013-7-2,89,76,68,66,60,54,76,58,32,30.03,29.97,0,-999,0,0.00
2013-7-3,76,68,61,55,50,41,70,54,35,30.06,29.98,0,-999,0,0.00
2013-7-4,68,60,54,52,48,42,74,65,56,30.01,29.94,0,-999,0,0.00
2013-7-5,64,56,48,51,47,43,88,72,63,29.96,29.90,0,-999,0,0.00
2013-7-6,76,61,49,56,46,-100,90,64,26,29.93,29.83,0,-999,0,0.00
2013-7-7,76,66,56,57,45,-100,82,62,26,29.89,29.82,0,-999,0,0.00
2013-7-8,77,63,52,57,52,47,89,68,37,30.05,29.88,0,-999,0,0.00
2013-7-9,86,72,59,57,49,-100,72,49,20,30.08,29.97,0,-999,0,0.00
2013-7-10,77,68,60,57,52,47,70,57,35,30.00,29.86,0,-999,0,0.00
2013-7-11,67,57,49,47,43,39,69,59,41,29.97,29.90,0,-999,0,0.00
2013-7-12,64,55,49,49,44,41,76,65,49,30.05,29.92,0,-999,0,0.00
2013-7-13,77,62,46,46,31,-100,77,45,12,30.14,30.05,0,-999,0,0.00
2013-7-14,82,71,58,46,21,-100,56,30,14,30.08,29.93,0,-999,0,0.00
2013-7-15,83,68,55,47,42,33,61,42,18,29.98,29.87,0,-999,0,0.00
2013-7-16,80,70,62,53,35,-100,58,32,23,29.94,29.84,0,-999,0,0.00
2013-7-17,76,67,57,53,40,-100,78,51,22,30.11,29.91,0,-999,0,0.00
2013-7-18,85,67,56,54,36,-100,70,51,16,30.14,30.04,0,-999,0,0.00
2013-7-19,87,70,58,59,32,-100,71,52,15,30.06,29.96,0,-999,0,0.00
2013-7-20,81,69,59,56,53,49,80,59,34,29.98,29.88,0,-999,0,0.00
2013-7-21,77,64,58,57,51,48,72,64,40,29.88,29.84,0,-999,0,0.00
2013-7-22,79,68,60,56,52,49,70,58,36,29.96,29.85,0,-999,0,0.00
2013-7-23,88,72,59,59,51,38,71,51,18,30.00,29.92,0,-999,0,0.00
2013-7-24,85,73,62,57,46,-100,67,48,21,29.99,29.95,0,-999,0,0.00
2013-7-25,83,72,62,55,51,45,69,48,26,30.03,29.96,0,-999,0,0.00
2013-7-26,85,70,62,55,50,44,63,49,27,30.07,30.00,0,-999,0,0.00
2013-7-27,73,63,54,52,44,37,66,51,33,30.07,29.94,0,-999,0,0.00
2013-7-28,67,58,49,51,47,45,84,68,49,29.95,29.90,0,-999,0,0.00
2013-7-29,75,61,49,51,47,41,86,62,30,29.96,29.90,0,-999,0,0.00
2013-7-30,78,67,56,54,43,-100,80,53,24,30.08,29.98,0,-999,0,0.00
2013-7-31,80,68,61,58,45,-100,73,58,23,30.08,29.96,0,-999,0,0.00
2013-8-1,63,58,53,53,50,47,87,76,67,30.04,29.96,0,-999,0,0.00
2013-8-2,61,54,51,50,48,46,87,78,66,30.10,30.03,0,-999,0,0.00
2013-8-3,77,64,51,56,48,-100,88,63,32,30.10,30.01,0,-999,0,0.00
2013-8-4,84,73,62,59,51,45,70,49,26,30.03,29.92,0,-999,0,0.00
2013-8-5,83,72,62,60,56,48,72,58,30,29.98,29.90,0,-999,0,0.00
2013-8-6,83,71,62,57,50,40,72,50,27,29.97,29.90,0,-999,0,0.00
2013-8-7,81,69,61,55,50,43,63,51,30,29.97,29.90,0,-999,0,0.00
2013-8-8,79,67,58,60,53,49,72,61,38,29.97,29.89,0,-999,0,0.00
2013-8-9,83,69,58,61,55,47,91,64,29,29.98,29.79,0,-999,0,0.00
2013-8-10,73,63,57,61,56,53,91,79,65,30.01,29.89,0,-999,0,0.00
2013-8-11,72,64,56,56,54,50,88,71,45,30.03,29.97,0,-999,0,0.00
2013-8-12,75,62,54,55,50,45,85,66,33,30.04,29.99,0,-999,0,0.00
2013-8-13,83,64,55,53,28,-100,77,58,16,30.07,29.96,0,-999,0,0.00
2013-8-14,78,70,65,49,46,44,47,42,35,29.96,29.92,0,-999,0,0.00
2013-8-15,74,68,62,59,52,44,74,58,46,29.98,29.92,0,-999,0,0.00
2013-8-26,68,57,51,55,51,48,96,82,61,29.97,29.92,0,-999,0,0.00
2013-8-27,70,60,55,54,50,47,77,70,55,29.98,29.91,0,-999,0,0.00
2013-8-28,78,73,66,59,53,49,66,50,35,29.91,29.86,0,-999,0,0.00
2013-8-29,69,65,62,57,54,51,78,65,60,30.04,29.86,0,-999,0,0.00
2013-8-30,72,64,58,54,51,46,85,65,40,30.15,30.07,0,-999,0,0.00
2013-8-31,81,71,59,49,46,42,67,43,27,30.05,29.88,0,-999,0,0.00
2013-9-1,81,72,61,55,50,42,72,49,31,29.86,29.79,0,-999,0,0.00
2013-9-2,76,68,58,54,51,49,71,54,39,29.89,29.83,0,-999,0,0.00
2013-9-30,47,43,42,42,39,36,93,86,80,29.97,29.57,0,-999,0,0.00
2013-10-1,40,40,40,37,37,37,91,89,87,30.20,30.18,0,-999,0,0.00
2013-10-2,46,40,36,37,36,34,95,86,69,30.20,30.05,0,-999,0,0.00
2013-10-3,51,42,36,40,37,34,94,80,65,30.42,30.13,0,-999,0,0.00
2013-10-4,57,47,40,39,36,32,89,67,39,30.50,30.41,0,-999,0,0.00
2013-10-5,63,54,44,36,33,29,63,45,31,30.42,30.25,0,-999,0,0.00
2013-10-6,64,57,48,43,35,31,57,44,33,30.22,29.98,0,-999,0,0.00
2013-10-7,52,46,43,43,39,36,90,77,54,30.05,29.93,0,-999,0,0.00
2013-10-8,45,43,41,40,39,38,91,87,80,30.03,29.95,0,-999,0,0.00
2013-10-9,49,44,36,38,35,30,91,70,65,30.11,29.96,0,-999,0,0.00
2013-10-10,51,45,41,40,37,33,87,72,63,30.03,29.90,0,-999,0,0.00
2013-10-11,48,43,39,39,37,35,93,80,63,30.14,30.05,0,-999,0,0.00
2013-10-12,44,42,39,40,38,36,94,87,77,30.17,30.03,0,-999,0,0.00
2013-10-13,50,44,39,38,35,32,91,70,61,30.27,30.20,0,-999,0,0.00